createdAt,value
2018-08-16T00:00:50.320Z,93.05
2018-08-16T00:02:51.023Z,93.72
2018-08-16T00:03:51.152Z,94.20
2018-08-16T00:04:50.352Z,93.72
2018-08-16T00:05:50.909Z,93.72
2018-08-16T00:06:51.282Z,93.53
2018-08-16T00:07:50.402Z,94.87
2018-08-16T00:08:50.420Z,93.72
2018-08-16T00:09:50.434Z,94.30
2018-08-16T00:10:50.458Z,94.01
2018-08-16T00:11:50.953Z,94.20
2018-08-16T00:12:50.485Z,94.45
2018-08-16T00:13:50.563Z,94.30
2018-08-16T00:14:50.519Z,94.25
2018-08-16T00:15:51.685Z,94.92
2018-08-16T00:16:50.554Z,94.73
2018-08-16T00:17:50.570Z,94.83
2018-08-16T00:18:50.585Z,94.83
2018-08-16T00:19:50.601Z,95.12
2018-08-16T00:20:50.618Z,94.92
2018-08-16T00:21:50.634Z,95.40
2018-08-16T00:22:50.704Z,95.60
2018-08-16T00:23:50.671Z,95.60
2018-08-16T00:24:50.732Z,95.70
2018-08-16T00:25:50.715Z,95.98
2018-08-16T00:26:50.717Z,96.08
2018-08-16T00:27:50.734Z,96.27
2018-08-16T00:29:50.828Z,96.94
2018-08-16T00:30:50.837Z,97.04
2018-08-16T00:31:50.803Z,96.66
2018-08-16T00:32:50.814Z,96.37
2018-08-16T00:33:50.831Z,96.37
2018-08-16T00:34:50.847Z,96.37
2018-08-16T00:35:50.868Z,97.33
2018-08-16T00:36:50.880Z,97.42
2018-08-16T00:37:50.897Z,96.85
2018-08-16T00:38:50.924Z,97.52
2018-08-16T00:39:50.930Z,97.24
2018-08-16T00:40:50.966Z,96.94
2018-08-16T00:41:50.963Z,97.04
2018-08-16T00:43:50.994Z,97.28
2018-08-16T00:44:51.431Z,97.76
2018-08-16T00:45:51.028Z,97.57
2018-08-16T00:46:51.478Z,97.76
2018-08-16T00:47:51.424Z,97.47
2018-08-16T00:48:51.077Z,97.38
2018-08-16T00:49:51.101Z,97.57
2018-08-16T00:50:51.218Z,97.76
2018-08-16T00:51:51.125Z,98.53
2018-08-16T00:52:51.151Z,99.01
2018-08-16T00:53:51.160Z,99.30
2018-08-16T00:54:51.226Z,98.24
2018-08-16T00:55:51.190Z,97.96
2018-08-16T00:56:51.207Z,98.72
2018-08-16T00:57:51.247Z,99.01
2018-08-16T00:58:51.813Z,99.01
2018-08-16T00:59:51.385Z,99.30
2018-08-16T01:00:51.290Z,99.01
2018-08-16T01:01:51.289Z,99.40
2018-08-16T01:02:51.839Z,99.30
2018-08-16T01:03:51.319Z,99.68
2018-08-16T01:04:51.336Z,99.49
2018-08-16T01:05:51.356Z,99.30
2018-08-16T01:06:51.371Z,99.68
2018-08-16T01:07:51.387Z,99.40
2018-08-16T01:08:51.403Z,99.99
2018-08-16T01:09:51.420Z,99.78
2018-08-16T01:10:51.435Z,99.40
2018-08-16T01:11:51.451Z,99.88
2018-08-16T01:12:51.477Z,99.99
2018-08-16T01:13:51.484Z,99.78
2018-08-16T01:14:51.501Z,99.99
2018-08-16T01:15:51.522Z,99.88
2018-08-16T01:16:51.599Z,99.99
2018-08-16T01:17:51.550Z,99.99
2018-08-16T01:18:51.631Z,99.99
2018-08-16T01:19:51.607Z,99.99
2018-08-16T01:20:51.598Z,99.99
2018-08-16T01:21:51.615Z,99.99
2018-08-16T01:22:51.630Z,99.99
2018-08-16T01:23:52.240Z,99.99
2018-08-16T01:24:51.661Z,99.99
2018-08-16T01:25:51.679Z,99.99
2018-08-16T01:26:52.005Z,99.99
2018-08-16T01:27:51.712Z,99.99
2018-08-16T01:28:51.728Z,99.99
2018-08-16T01:29:51.746Z,99.99
2018-08-16T01:30:52.130Z,99.99
2018-08-16T01:31:51.809Z,99.99
2018-08-16T01:32:51.830Z,99.99
2018-08-16T01:33:52.033Z,99.99
2018-08-16T01:35:51.839Z,99.99
2018-08-16T01:37:51.872Z,99.99
2018-08-16T01:38:51.907Z,99.99
2018-08-16T01:39:51.906Z,99.99
2018-08-16T01:40:51.922Z,99.99
2018-08-16T01:41:51.938Z,99.99
2018-08-16T01:42:51.962Z,99.99
2018-08-16T01:43:51.975Z,99.99
2018-08-16T01:44:51.989Z,99.99
2018-08-16T01:45:52.002Z,99.99
2018-08-16T01:46:52.013Z,99.99
2018-08-16T01:47:52.030Z,99.99
2018-08-16T01:48:52.093Z,99.99
2018-08-16T01:49:52.071Z,99.99
2018-08-16T01:50:52.076Z,99.99
2018-08-16T01:51:52.194Z,99.99
2018-08-16T01:52:52.159Z,99.99
2018-08-16T01:53:52.125Z,99.99
2018-08-16T01:54:52.142Z,99.99
2018-08-16T01:55:52.163Z,99.99
2018-08-16T01:56:52.172Z,99.99
2018-08-16T01:57:52.205Z,99.99
2018-08-16T01:58:52.405Z,99.99
2018-08-16T01:59:52.226Z,99.99
2018-08-16T02:00:52.243Z,99.99
2018-08-16T02:01:52.258Z,99.99
2018-08-16T02:02:52.270Z,99.99
2018-08-16T02:03:52.289Z,99.99
2018-08-16T02:04:52.308Z,99.99
2018-08-16T02:05:52.319Z,99.99
2018-08-16T02:06:52.335Z,99.99
2018-08-16T02:07:52.354Z,99.99
2018-08-16T02:08:52.409Z,99.99
2018-08-16T02:09:52.462Z,99.99
2018-08-16T02:10:52.402Z,99.99
2018-08-16T02:11:52.415Z,99.99
2018-08-16T02:12:52.434Z,99.99
2018-08-16T02:13:52.450Z,99.99
2018-08-16T02:14:52.465Z,99.99
2018-08-16T02:15:52.492Z,99.99
2018-08-16T02:16:52.500Z,99.99
2018-08-16T02:17:52.612Z,99.99
2018-08-16T02:18:52.530Z,99.99
2018-08-16T02:19:52.544Z,99.99
2018-08-16T02:20:52.862Z,99.99
2018-08-16T02:21:52.580Z,99.99
2018-08-16T02:22:52.596Z,99.99
2018-08-16T02:23:52.813Z,99.99
2018-08-16T02:24:53.168Z,99.99
2018-08-16T02:25:52.648Z,99.99
2018-08-16T02:26:53.293Z,99.99
2018-08-16T02:27:53.216Z,99.99
2018-08-16T02:28:52.705Z,99.99
2018-08-16T02:29:52.708Z,99.99
2018-08-16T02:30:52.735Z,99.99
2018-08-16T02:31:52.761Z,99.99
2018-08-16T02:32:52.765Z,99.99
2018-08-16T02:33:52.960Z,99.99
2018-08-16T02:34:53.073Z,99.99
2018-08-16T02:35:53.172Z,99.99
2018-08-16T02:36:53.097Z,99.99
2018-08-16T02:37:52.925Z,99.99
2018-08-16T02:38:52.860Z,99.99
2018-08-16T02:39:52.921Z,99.99
2018-08-16T02:40:53.817Z,99.99
2018-08-16T02:41:52.914Z,99.99
2018-08-16T02:42:52.927Z,99.99
2018-08-16T02:44:53.222Z,99.99
2018-08-16T02:45:52.967Z,99.99
2018-08-16T02:46:52.983Z,99.99
2018-08-16T02:47:53.002Z,99.99
2018-08-16T02:48:53.015Z,99.99
2018-08-16T02:49:53.030Z,99.99
2018-08-16T02:50:53.106Z,99.99
2018-08-16T02:51:53.079Z,99.99
2018-08-16T02:52:53.077Z,99.99
2018-08-16T02:53:53.094Z,99.99
2018-08-16T02:54:53.118Z,99.99
2018-08-16T02:55:53.125Z,99.99
2018-08-16T02:56:53.145Z,99.99
2018-08-16T02:57:53.209Z,99.99
2018-08-16T02:58:53.179Z,99.99
2018-08-16T02:59:53.245Z,99.99
2018-08-16T03:00:53.228Z,99.99
2018-08-16T03:01:53.222Z,99.99
2018-08-16T03:03:53.254Z,99.99
2018-08-16T03:05:53.287Z,99.99
2018-08-16T03:06:54.003Z,99.99
2018-08-16T03:07:53.321Z,99.99
2018-08-16T03:08:53.333Z,99.99
2018-08-16T03:09:53.351Z,99.99
2018-08-16T03:10:53.380Z,99.99
2018-08-16T03:11:53.438Z,99.99
2018-08-16T03:13:53.845Z,99.99
2018-08-16T03:14:53.429Z,99.99
2018-08-16T03:15:53.459Z,99.99
2018-08-16T03:16:53.463Z,99.99
2018-08-16T03:17:53.483Z,99.99
2018-08-16T03:18:53.493Z,99.99
2018-08-16T03:20:53.626Z,99.99
2018-08-16T03:21:53.542Z,99.99
2018-08-16T03:22:53.559Z,99.99
2018-08-16T03:23:53.574Z,99.99
2018-08-16T03:24:53.900Z,99.99
2018-08-16T03:25:53.615Z,99.99
2018-08-16T03:26:53.625Z,99.99
2018-08-16T03:27:53.638Z,99.99
2018-08-16T03:28:53.654Z,99.99
2018-08-16T03:29:53.671Z,99.99
2018-08-16T03:30:53.691Z,99.99
2018-08-16T03:31:53.709Z,99.99
2018-08-16T03:32:53.719Z,99.99
2018-08-16T03:33:53.735Z,99.99
2018-08-16T03:34:53.750Z,99.99
2018-08-16T03:35:53.767Z,99.99
2018-08-16T03:36:53.886Z,99.99
2018-08-16T03:37:53.966Z,99.99
2018-08-16T03:39:53.830Z,99.99
2018-08-16T03:40:53.847Z,99.99
2018-08-16T03:41:54.006Z,99.99
2018-08-16T03:42:53.879Z,99.99
2018-08-16T03:44:54.313Z,99.99
2018-08-16T03:45:54.382Z,99.99
2018-08-16T03:46:54.376Z,99.99
2018-08-16T03:47:53.958Z,99.99
2018-08-16T03:48:53.973Z,99.99
2018-08-16T03:49:53.992Z,99.99
2018-08-16T03:50:54.006Z,99.99
2018-08-16T03:51:54.022Z,99.99
2018-08-16T03:52:54.040Z,99.99
2018-08-16T03:53:54.056Z,99.99
2018-08-16T03:54:54.071Z,99.99
2018-08-16T03:55:54.090Z,99.99
2018-08-16T03:56:54.105Z,99.99
2018-08-16T03:57:54.119Z,99.99
2018-08-16T03:58:54.148Z,99.99
2018-08-16T03:59:54.156Z,99.99
2018-08-16T04:00:54.181Z,99.99
2018-08-16T04:01:55.248Z,99.99
2018-08-16T04:03:54.230Z,99.99
2018-08-16T04:04:54.509Z,99.99
2018-08-16T04:05:54.755Z,99.99
2018-08-16T04:07:54.620Z,99.99
2018-08-16T04:09:55.138Z,99.99
2018-08-16T04:10:54.335Z,99.99
2018-08-16T04:11:54.349Z,99.99
2018-08-16T04:12:54.368Z,99.99
2018-08-16T04:13:54.375Z,99.99
2018-08-16T04:14:54.392Z,99.99
2018-08-16T04:15:54.408Z,99.99
2018-08-16T04:16:54.736Z,99.99
2018-08-16T04:17:54.442Z,99.99
2018-08-16T04:18:54.456Z,99.99
2018-08-16T04:19:54.474Z,99.99
2018-08-16T04:20:54.931Z,99.99
2018-08-16T04:21:54.513Z,99.99
2018-08-16T04:22:54.521Z,99.99
2018-08-16T04:23:54.534Z,99.99
2018-08-16T04:24:54.550Z,99.99
2018-08-16T04:25:54.566Z,99.99
2018-08-16T04:26:54.670Z,99.99
2018-08-16T04:27:54.602Z,99.99
2018-08-16T04:28:54.619Z,99.99
2018-08-16T04:29:54.679Z,99.99
2018-08-16T04:30:54.646Z,99.99
2018-08-16T04:31:55.335Z,99.99
2018-08-16T04:32:54.679Z,99.99
2018-08-16T04:33:55.024Z,99.99
2018-08-16T04:35:56.914Z,99.99
2018-08-16T04:36:56.954Z,99.99
2018-08-16T04:38:56.672Z,99.99
2018-08-16T04:39:54.823Z,99.99
2018-08-16T04:40:54.816Z,99.99
2018-08-16T04:41:54.864Z,99.99
2018-08-16T04:42:54.874Z,99.99
2018-08-16T04:43:54.854Z,99.99
2018-08-16T04:44:54.907Z,99.99
2018-08-16T04:45:54.887Z,99.99
2018-08-16T04:46:54.899Z,99.99
2018-08-16T04:47:55.497Z,99.99
2018-08-16T04:48:54.930Z,99.99
2018-08-16T04:49:55.354Z,99.99
2018-08-16T04:50:54.973Z,99.99
2018-08-16T04:51:55.032Z,99.99
2018-08-16T04:52:54.999Z,99.99
2018-08-16T04:53:55.012Z,99.99
2018-08-16T04:54:55.028Z,99.99
2018-08-16T04:55:55.044Z,99.99
2018-08-16T04:56:55.136Z,99.99
2018-08-16T04:57:55.076Z,99.99
2018-08-16T04:58:55.094Z,99.99
2018-08-16T04:59:55.108Z,99.99
2018-08-16T05:00:55.124Z,99.99
2018-08-16T05:01:55.248Z,99.99
2018-08-16T05:02:55.156Z,99.99
2018-08-16T05:03:55.401Z,99.99
2018-08-16T05:04:55.656Z,99.99
2018-08-16T05:05:55.213Z,99.99
2018-08-16T05:06:55.245Z,99.99
2018-08-16T05:07:55.241Z,99.99
2018-08-16T05:08:55.250Z,99.99
2018-08-16T05:09:55.266Z,99.99
2018-08-16T05:10:55.317Z,99.99
2018-08-16T05:11:55.297Z,99.99
2018-08-16T05:12:55.400Z,99.99
2018-08-16T05:13:55.723Z,99.99
2018-08-16T05:14:55.491Z,99.99
2018-08-16T05:15:55.409Z,99.99
2018-08-16T05:16:55.417Z,99.99
2018-08-16T05:17:55.482Z,99.99
2018-08-16T05:18:55.412Z,99.99
2018-08-16T05:19:55.438Z,99.99
2018-08-16T05:20:55.444Z,99.99
2018-08-16T05:21:55.948Z,99.99
2018-08-16T05:22:55.485Z,99.99
2018-08-16T05:23:55.526Z,99.99
2018-08-16T05:24:55.506Z,99.99
2018-08-16T05:26:55.547Z,99.99
2018-08-16T05:27:55.554Z,99.99
2018-08-16T05:28:56.422Z,99.99
2018-08-16T05:29:55.586Z,99.99
2018-08-16T05:30:55.611Z,99.99
2018-08-16T05:31:55.668Z,99.99
2018-08-16T05:32:55.647Z,99.99
2018-08-16T05:33:55.778Z,99.99
2018-08-16T05:34:55.897Z,99.99
2018-08-16T05:36:56.367Z,99.99
2018-08-16T05:37:55.717Z,99.99
2018-08-16T05:38:55.732Z,99.99
2018-08-16T05:39:55.994Z,99.99
2018-08-16T05:40:56.044Z,99.99
2018-08-16T05:42:55.909Z,99.99
2018-08-16T05:43:55.809Z,99.99
2018-08-16T05:44:55.971Z,99.99
2018-08-16T05:45:55.872Z,99.99
2018-08-16T05:46:55.860Z,99.99
2018-08-16T05:47:55.982Z,99.99
2018-08-16T05:48:55.946Z,99.99
2018-08-16T05:49:55.966Z,99.99
2018-08-16T05:50:56.033Z,99.99
2018-08-16T05:51:55.981Z,99.99
2018-08-16T05:52:55.969Z,99.99
2018-08-16T05:54:57.213Z,99.99
2018-08-16T05:55:56.661Z,99.99
2018-08-16T05:57:56.149Z,99.99
2018-08-16T05:58:56.118Z,99.99
2018-08-16T05:59:56.512Z,99.99
2018-08-16T06:00:56.086Z,99.99
2018-08-16T06:01:56.101Z,99.99
2018-08-16T06:02:56.187Z,99.99
2018-08-16T06:03:56.198Z,99.99
2018-08-16T06:04:56.147Z,99.99
2018-08-16T06:05:56.618Z,99.98
2018-08-16T06:06:56.202Z,99.98
2018-08-16T06:07:56.196Z,99.88
2018-08-16T06:08:56.229Z,99.78
2018-08-16T06:11:56.265Z,99.92
2018-08-16T06:12:56.276Z,99.99
2018-08-16T06:13:56.601Z,99.99
2018-08-16T06:14:58.055Z,99.59
2018-08-16T06:15:56.337Z,99.88
2018-08-16T06:17:56.477Z,99.40
2018-08-16T06:18:56.960Z,98.72
2018-08-16T06:19:57.033Z,99.01
2018-08-16T06:20:56.477Z,97.57
2018-08-16T06:21:56.756Z,97.09
2018-08-16T06:22:56.482Z,97.57
2018-08-16T06:23:56.947Z,96.75
2018-08-16T06:24:57.566Z,96.47
2018-08-16T06:27:57.242Z,95.12
2018-08-16T06:28:56.546Z,94.25
2018-08-16T06:29:56.625Z,93.87
2018-08-16T06:30:56.582Z,93.68
2018-08-16T06:31:56.589Z,93.48
2018-08-16T06:32:56.619Z,93.68
2018-08-16T06:34:56.633Z,92.43
2018-08-16T06:35:56.675Z,92.18
2018-08-16T06:36:56.669Z,91.41
2018-08-16T06:37:56.693Z,91.13
2018-08-16T06:38:56.881Z,91.22
2018-08-16T06:39:56.792Z,90.50
2018-08-16T06:40:56.740Z,89.24
2018-08-16T06:42:56.784Z,89.53
2018-08-16T06:43:56.863Z,89.43
2018-08-16T06:44:57.186Z,88.67
2018-08-16T06:45:56.824Z,89.05
2018-08-16T06:46:56.863Z,89.15
2018-08-16T06:47:57.090Z,89.24
2018-08-16T06:48:56.862Z,89.34
2018-08-16T06:50:57.037Z,88.38
2018-08-16T06:51:56.931Z,88.38
2018-08-16T06:52:57.034Z,88.42
2018-08-16T06:53:56.947Z,86.78
2018-08-16T06:54:57.014Z,87.80
2018-08-16T06:55:57.681Z,88.13
2018-08-16T06:56:57.082Z,87.74
2018-08-16T06:57:57.140Z,86.59
2018-08-16T06:58:57.777Z,86.78
2018-08-16T06:59:58.736Z,86.78
2018-08-16T07:00:57.068Z,86.78
2018-08-16T07:01:57.097Z,87.07
2018-08-16T07:02:57.111Z,87.55
2018-08-16T07:03:57.145Z,87.55
2018-08-16T07:04:57.211Z,86.59
2018-08-16T07:05:57.158Z,86.49
2018-08-16T07:06:57.252Z,87.46
2018-08-16T07:07:57.216Z,87.46
2018-08-16T07:08:57.378Z,86.30
2018-08-16T07:09:57.216Z,86.35
2018-08-16T07:10:57.306Z,86.01
2018-08-16T07:11:57.299Z,86.44
2018-08-16T07:12:57.284Z,86.25
2018-08-16T07:13:57.284Z,86.63
2018-08-16T07:14:57.616Z,86.44
2018-08-16T07:15:57.323Z,86.63
2018-08-16T07:16:57.342Z,85.34
2018-08-16T07:17:57.359Z,86.01
2018-08-16T07:18:57.502Z,85.82
2018-08-16T07:19:57.405Z,86.01
2018-08-16T07:20:57.411Z,85.19
2018-08-16T07:21:57.461Z,85.19
2018-08-16T07:22:57.455Z,85.09
2018-08-16T07:23:57.622Z,84.99
2018-08-16T07:24:57.910Z,84.03
2018-08-16T07:25:57.976Z,84.70
2018-08-16T07:26:57.919Z,84.32
2018-08-16T07:27:57.813Z,84.80
2018-08-16T07:28:57.917Z,85.28
2018-08-16T07:29:58.184Z,84.22
2018-08-16T07:30:58.410Z,84.42
2018-08-16T07:31:58.498Z,83.40
2018-08-16T07:32:57.869Z,82.05
2018-08-16T07:33:58.239Z,82.05
2018-08-16T07:34:57.657Z,81.76
2018-08-16T07:35:57.673Z,81.85
2018-08-16T07:36:57.696Z,80.89
2018-08-16T07:37:57.694Z,80.22
2018-08-16T07:39:57.784Z,80.69
2018-08-16T07:40:57.751Z,80.79
2018-08-16T07:41:57.827Z,80.69
2018-08-16T07:42:57.943Z,80.69
2018-08-16T07:43:57.805Z,81.09
2018-08-16T07:44:57.881Z,80.79
2018-08-16T07:45:57.875Z,80.12
2018-08-16T07:46:57.910Z,80.02
2018-08-16T07:47:58.977Z,80.69
2018-08-16T07:48:57.891Z,80.79
2018-08-16T07:49:57.898Z,81.09
2018-08-16T07:50:57.940Z,81.95
2018-08-16T07:52:58.920Z,81.85
2018-08-16T07:54:58.497Z,81.66
2018-08-16T07:56:02.284Z,81.66
2018-08-16T07:57:58.166Z,80.99
2018-08-16T07:59:58.098Z,79.44
2018-08-16T08:00:58.095Z,80.02
2018-08-16T08:01:58.275Z,78.81
2018-08-16T08:02:59.001Z,79.29
2018-08-16T08:03:58.149Z,78.13
2018-08-16T08:05:58.173Z,78.03
2018-08-16T08:06:58.683Z,78.17
2018-08-16T08:07:58.355Z,78.36
2018-08-16T08:08:59.751Z,78.27
2018-08-16T08:09:58.251Z,77.88
2018-08-16T08:12:58.283Z,77.01
2018-08-16T08:13:58.301Z,77.59
2018-08-16T08:14:58.380Z,77.78
2018-08-16T08:16:00.288Z,77.30
2018-08-16T08:16:58.366Z,77.17
2018-08-16T08:17:58.387Z,77.01
2018-08-16T08:18:58.929Z,77.50
2018-08-16T08:19:59.124Z,77.11
2018-08-16T08:20:58.738Z,77.50
2018-08-16T08:22:58.618Z,77.59
2018-08-16T08:24:58.491Z,77.50
2018-08-16T08:25:58.507Z,77.78
2018-08-16T08:26:58.962Z,76.92
2018-08-16T08:27:58.971Z,76.92
2018-08-16T08:28:58.613Z,76.92
2018-08-16T08:29:58.615Z,77.21
2018-08-16T08:30:58.648Z,76.15
2018-08-16T08:31:58.666Z,76.63
2018-08-16T08:32:58.654Z,76.34
2018-08-16T08:33:58.696Z,76.63
2018-08-16T08:34:58.660Z,76.28
2018-08-16T08:35:58.682Z,75.02
2018-08-16T08:36:58.701Z,75.02
2018-08-16T08:37:58.838Z,74.25
2018-08-16T08:38:58.796Z,74.64
2018-08-16T08:39:58.813Z,74.35
2018-08-16T08:40:58.765Z,73.96
2018-08-16T08:41:58.793Z,74.29
2018-08-16T08:42:58.819Z,74.77
2018-08-16T08:44:58.834Z,74.93
2018-08-16T08:45:58.867Z,74.25
2018-08-16T08:47:00.048Z,74.44
2018-08-16T08:48:59.908Z,74.83
2018-08-16T08:51:59.062Z,74.73
2018-08-16T08:52:58.971Z,74.16
2018-08-16T08:53:58.995Z,74.06
2018-08-16T08:54:59.009Z,74.10
2018-08-16T08:55:59.064Z,73.61
2018-08-16T08:56:59.044Z,72.84
2018-08-16T08:57:59.063Z,73.03
2018-08-16T08:58:59.075Z,72.55
2018-08-16T08:59:59.094Z,72.64
2018-08-16T09:00:59.114Z,73.13
2018-08-16T09:01:59.129Z,73.52
2018-08-16T09:02:59.147Z,73.80
2018-08-16T09:03:59.167Z,73.71
2018-08-16T09:04:59.181Z,72.94
2018-08-16T09:05:59.201Z,73.80
2018-08-16T09:06:59.245Z,74.96
2018-08-16T09:07:59.233Z,74.19
2018-08-16T09:08:59.252Z,73.61
2018-08-16T09:09:59.269Z,73.52
2018-08-16T09:10:59.297Z,74.38
2018-08-16T09:11:59.309Z,74.38
2018-08-16T09:12:59.321Z,74.38
2018-08-16T09:13:59.361Z,74.29
2018-08-16T09:14:59.412Z,74.96
2018-08-16T09:15:59.374Z,74.48
2018-08-16T09:16:59.391Z,74.87
2018-08-16T09:17:59.410Z,74.48
2018-08-16T09:18:59.428Z,74.38
2018-08-16T09:19:59.457Z,74.77
2018-08-16T09:20:59.460Z,74.96
2018-08-16T09:21:59.489Z,74.19
2018-08-16T09:22:59.558Z,74.48
2018-08-16T09:23:59.559Z,74.32
2018-08-16T09:24:59.601Z,74.00
2018-08-16T09:25:59.548Z,72.97
2018-08-16T09:26:59.571Z,73.55
2018-08-16T09:27:59.584Z,73.07
2018-08-16T09:28:59.601Z,72.00
2018-08-16T09:29:59.637Z,72.88
2018-08-16T09:30:59.637Z,73.55
2018-08-16T09:31:59.654Z,73.36
2018-08-16T09:32:59.672Z,73.01
2018-08-16T09:33:59.690Z,71.91
2018-08-16T09:34:59.709Z,71.75
2018-08-16T09:35:59.726Z,72.52
2018-08-16T09:36:59.743Z,72.81
2018-08-16T09:37:59.762Z,71.94
2018-08-16T09:38:59.784Z,72.14
2018-08-16T09:39:59.799Z,71.84
2018-08-16T09:40:59.817Z,71.94
2018-08-16T09:42:00.036Z,71.66
2018-08-16T09:42:59.853Z,72.72
2018-08-16T09:44:01.106Z,71.84
2018-08-16T09:45:59.912Z,71.66
2018-08-16T09:46:59.930Z,72.27
2018-08-16T09:47:59.942Z,72.17
2018-08-16T09:48:59.973Z,70.43
2018-08-16T09:49:59.979Z,70.62
2018-08-16T09:51:00.238Z,70.04
2018-08-16T09:52:00.020Z,70.72
2018-08-16T09:53:00.037Z,71.40
2018-08-16T09:54:00.052Z,70.53
2018-08-16T09:55:00.144Z,69.46
2018-08-16T09:56:00.092Z,68.98
2018-08-16T09:57:00.109Z,70.53
2018-08-16T09:58:00.126Z,69.85
2018-08-16T09:59:00.147Z,69.82
2018-08-16T10:00:00.407Z,70.53
2018-08-16T10:01:00.181Z,70.68
2018-08-16T10:02:00.306Z,71.17
2018-08-16T10:03:00.224Z,70.98
2018-08-16T10:04:00.406Z,69.75
2018-08-16T10:05:00.270Z,69.75
2018-08-16T10:06:00.354Z,70.34
2018-08-16T10:07:00.291Z,69.75
2018-08-16T10:08:00.310Z,69.75
2018-08-16T10:09:00.333Z,69.66
2018-08-16T10:10:00.344Z,69.75
2018-08-16T10:11:00.367Z,69.95
2018-08-16T10:12:00.382Z,69.89
2018-08-16T10:13:00.400Z,69.50
2018-08-16T10:14:00.520Z,68.43
2018-08-16T10:15:00.469Z,67.76
2018-08-16T10:16:00.453Z,68.11
2018-08-16T10:17:00.474Z,69.17
2018-08-16T10:18:00.492Z,69.17
2018-08-16T10:19:00.612Z,69.66
2018-08-16T10:20:00.527Z,69.46
2018-08-16T10:21:00.635Z,69.17
2018-08-16T10:22:00.566Z,69.59
2018-08-16T10:23:00.583Z,68.59
2018-08-16T10:24:00.608Z,69.79
2018-08-16T10:25:00.620Z,69.11
2018-08-16T10:26:00.639Z,69.79
2018-08-16T10:27:00.665Z,68.24
2018-08-16T10:28:00.682Z,67.95
2018-08-16T10:29:00.692Z,67.50
2018-08-16T10:30:00.709Z,67.60
2018-08-16T10:31:00.728Z,67.11
2018-08-16T10:32:00.745Z,67.46
2018-08-16T10:33:00.766Z,67.08
2018-08-16T10:34:00.783Z,67.27
2018-08-16T10:35:00.806Z,67.27
2018-08-16T10:36:00.819Z,68.05
2018-08-16T10:37:00.854Z,67.11
2018-08-16T10:38:00.855Z,67.40
2018-08-16T10:39:00.872Z,67.11
2018-08-16T10:40:00.895Z,67.60
2018-08-16T10:41:00.916Z,67.40
2018-08-16T10:42:00.932Z,67.88
2018-08-16T10:43:00.947Z,67.60
2018-08-16T10:44:00.964Z,66.43
2018-08-16T10:45:01.089Z,66.34
2018-08-16T10:46:01.065Z,66.85
2018-08-16T10:47:01.020Z,66.37
2018-08-16T10:48:01.038Z,66.37
2018-08-16T10:49:01.056Z,65.89
2018-08-16T10:50:01.075Z,65.69
2018-08-16T10:51:01.093Z,64.92
2018-08-16T10:52:01.111Z,65.53
2018-08-16T10:53:01.135Z,65.82
2018-08-16T10:54:01.149Z,64.95
2018-08-16T10:55:01.167Z,64.95
2018-08-16T10:56:01.188Z,64.37
2018-08-16T10:57:01.204Z,64.27
2018-08-16T10:58:01.224Z,63.04
2018-08-16T10:59:01.245Z,62.95
2018-08-16T11:00:01.283Z,63.59
2018-08-16T11:01:01.282Z,62.91
2018-08-16T11:02:01.300Z,63.10
2018-08-16T11:03:01.318Z,63.40
2018-08-16T11:04:01.335Z,63.78
2018-08-16T11:05:01.359Z,63.88
2018-08-16T11:06:01.370Z,64.47
2018-08-16T11:07:01.389Z,62.85
2018-08-16T11:08:01.407Z,63.20
2018-08-16T11:09:01.429Z,63.78
2018-08-16T11:10:01.445Z,63.59
2018-08-16T11:11:01.473Z,64.07
2018-08-16T11:12:01.483Z,63.98
2018-08-16T11:13:01.500Z,63.10
2018-08-16T11:14:01.521Z,62.85
2018-08-16T11:15:01.590Z,63.13
2018-08-16T11:16:01.559Z,62.75
2018-08-16T11:17:01.576Z,62.26
2018-08-16T11:18:01.596Z,62.07
2018-08-16T11:19:01.724Z,60.42
2018-08-16T11:20:01.633Z,62.68
2018-08-16T11:21:01.653Z,61.52
2018-08-16T11:22:01.672Z,62.01
2018-08-16T11:23:01.692Z,60.35
2018-08-16T11:24:01.724Z,61.32
2018-08-16T11:25:01.731Z,59.41
2018-08-16T11:26:01.749Z,60.16
2018-08-16T11:27:01.772Z,60.74
2018-08-16T11:28:01.788Z,60.74
2018-08-16T11:29:01.806Z,60.87
2018-08-16T11:30:01.827Z,60.45
2018-08-16T11:31:01.846Z,60.16
2018-08-16T11:32:01.862Z,60.38
2018-08-16T11:33:01.891Z,59.51
2018-08-16T11:34:01.944Z,59.03
2018-08-16T11:35:01.929Z,60.22
2018-08-16T11:36:01.943Z,58.28
2018-08-16T11:37:01.958Z,58.18
2018-08-16T11:38:01.981Z,58.83
2018-08-16T11:39:01.998Z,58.64
2018-08-16T11:40:02.017Z,56.70
2018-08-16T11:41:02.036Z,57.96
2018-08-16T11:42:02.055Z,59.03
2018-08-16T11:43:02.076Z,59.05
2018-08-16T11:44:02.093Z,58.44
2018-08-16T11:45:02.118Z,57.57
2018-08-16T11:46:02.133Z,59.15
2018-08-16T11:47:02.152Z,56.72
2018-08-16T11:48:02.173Z,56.30
2018-08-16T11:49:02.191Z,57.98
2018-08-16T11:50:02.210Z,57.50
2018-08-16T11:51:02.230Z,57.08
2018-08-16T11:52:02.253Z,56.21
2018-08-16T11:53:02.269Z,56.30
2018-08-16T11:54:02.289Z,56.60
2018-08-16T11:55:02.307Z,57.47
2018-08-16T11:56:02.325Z,56.50
2018-08-16T11:57:02.344Z,56.89
2018-08-16T11:58:02.364Z,58.15
2018-08-16T12:00:02.403Z,57.86
2018-08-16T12:01:02.421Z,58.54
2018-08-16T12:02:02.505Z,57.60
2018-08-16T12:03:02.463Z,57.69
2018-08-16T12:04:02.479Z,57.96
2018-08-16T12:05:02.501Z,57.11
2018-08-16T12:06:02.521Z,56.24
2018-08-16T12:07:02.539Z,56.43
2018-08-16T12:08:02.579Z,55.75
2018-08-16T12:09:02.577Z,55.88
2018-08-16T12:10:02.597Z,55.78
2018-08-16T12:11:02.617Z,56.36
2018-08-16T12:12:02.639Z,55.03
2018-08-16T12:13:02.655Z,55.41
2018-08-16T12:14:02.678Z,54.80
2018-08-16T12:15:02.715Z,54.90
2018-08-16T12:16:02.715Z,55.88
2018-08-16T12:17:02.735Z,55.78
2018-08-16T12:18:02.755Z,54.74
2018-08-16T12:19:02.775Z,55.71
2018-08-16T12:20:02.792Z,54.76
2018-08-16T12:21:02.851Z,53.59
2018-08-16T12:22:02.833Z,54.76
2018-08-16T12:23:02.853Z,55.35
2018-08-16T12:24:02.874Z,55.44
2018-08-16T12:25:02.892Z,52.82
2018-08-16T12:26:02.913Z,53.04
2018-08-16T12:27:02.937Z,54.21
2018-08-16T12:28:02.952Z,50.31
2018-08-16T12:29:03.082Z,51.09
2018-08-16T12:30:02.993Z,52.45
2018-08-16T12:31:03.015Z,51.19
2018-08-16T12:32:03.034Z,50.80
2018-08-16T12:33:03.054Z,50.12
2018-08-16T12:34:03.075Z,50.41
2018-08-16T12:35:03.095Z,53.11
2018-08-16T12:36:03.124Z,52.72
2018-08-16T12:37:03.134Z,52.06
2018-08-16T12:38:03.158Z,52.75
2018-08-16T12:39:03.179Z,50.99
2018-08-16T12:40:03.208Z,50.41
2018-08-16T12:41:03.231Z,49.15
2018-08-16T12:42:03.293Z,49.66
2018-08-16T12:43:03.260Z,50.04
2018-08-16T12:44:03.285Z,49.07
2018-08-16T12:45:03.305Z,49.34
2018-08-16T12:46:03.322Z,49.61
2018-08-16T12:47:03.343Z,51.75
2018-08-16T12:48:03.369Z,52.82
2018-08-16T12:49:03.384Z,51.29
2018-08-16T12:50:03.410Z,54.60
2018-08-16T12:51:03.429Z,52.36
2018-08-16T12:52:03.446Z,51.87
2018-08-16T12:53:03.466Z,52.92
2018-08-16T12:54:03.491Z,53.69
2018-08-16T12:55:03.522Z,52.23
2018-08-16T12:56:03.530Z,53.89
2018-08-16T12:57:03.549Z,53.30
2018-08-16T12:58:03.576Z,53.42
2018-08-16T12:59:03.616Z,52.36
2018-08-16T13:00:03.611Z,51.77
2018-08-16T13:01:03.632Z,53.91
2018-08-16T13:02:03.654Z,51.99
2018-08-16T13:03:03.674Z,50.92
2018-08-16T13:04:03.700Z,51.02
2018-08-16T13:05:03.716Z,51.67
2018-08-16T13:06:03.737Z,51.19
2018-08-16T13:07:03.768Z,51.41
2018-08-16T13:08:03.783Z,49.68
2018-08-16T13:09:03.872Z,50.56
2018-08-16T13:10:03.827Z,50.65
2018-08-16T13:11:03.843Z,47.36
2018-08-16T13:12:03.865Z,49.71
2018-08-16T13:13:03.883Z,46.39
2018-08-16T13:14:03.906Z,46.51
2018-08-16T13:15:03.978Z,48.75
2018-08-16T13:16:03.948Z,49.37
2018-08-16T13:17:03.968Z,48.36
2018-08-16T13:18:03.998Z,48.93
2018-08-16T13:19:04.011Z,48.63
2018-08-16T13:20:04.036Z,48.24
2018-08-16T13:21:04.054Z,49.41
2018-08-16T13:22:04.076Z,46.78
2018-08-16T13:23:06.869Z,47.56
2018-08-16T13:24:04.128Z,48.05
2018-08-16T13:25:04.140Z,47.00
2018-08-16T13:26:04.163Z,47.12
2018-08-16T13:27:04.202Z,46.04
2018-08-16T13:28:04.208Z,46.73
2018-08-16T13:29:04.227Z,46.31
2018-08-16T13:30:04.784Z,45.83
2018-08-16T13:31:04.279Z,46.41
2018-08-16T13:32:04.296Z,47.90
2018-08-16T13:33:04.320Z,45.36
2018-08-16T13:34:04.345Z,45.26
2018-08-16T13:35:04.366Z,45.25
2018-08-16T13:36:04.390Z,46.31
2018-08-16T13:37:04.442Z,46.90
2018-08-16T13:38:04.650Z,48.17
2018-08-16T13:39:04.459Z,48.39